createdAt,value
2018-04-17T00:00:02.973Z,10.6
2018-04-17T00:15:02.327Z,10.5
2018-04-17T00:30:02.769Z,10.4
2018-04-17T00:45:03.062Z,10.4
2018-04-17T01:00:02.467Z,10.4
2018-04-17T01:15:02.762Z,10.3
2018-04-17T01:30:03.173Z,10.3
2018-04-17T01:45:02.530Z,10.2
2018-04-17T02:00:02.828Z,10.2
2018-04-17T02:15:03.150Z,10.2
2018-04-17T02:30:02.922Z,10.1
2018-04-17T02:45:03.253Z,10.1
2018-04-17T03:00:02.635Z,10.1
2018-04-17T03:15:02.912Z,10
2018-04-17T03:30:02.351Z,9.9
2018-04-17T03:45:02.717Z,9.9
2018-04-17T04:00:03.030Z,9.9
2018-04-17T04:15:02.429Z,9.9
2018-04-17T04:30:02.793Z,9.8
2018-04-17T04:45:03.176Z,9.8
2018-04-17T05:00:02.578Z,9.8
2018-04-17T05:15:02.851Z,9.7
2018-04-17T05:30:03.253Z,9.7
2018-04-17T05:45:02.635Z,9.6
2018-04-17T06:00:02.965Z,9.6
2018-04-17T06:15:02.264Z,9.6
2018-04-17T06:30:02.719Z,9.6
2018-04-17T06:45:02.920Z,9.6
2018-04-17T07:00:03.223Z,9.6
2018-04-17T07:15:02.376Z,9.6
2018-04-17T07:30:02.757Z,9.6
2018-04-17T07:45:03.002Z,9.7
2018-04-17T08:00:02.338Z,9.7
2018-04-17T08:15:02.645Z,9.8
2018-04-17T08:30:03.074Z,9.8
2018-04-17T08:45:02.393Z,9.8
2018-04-17T09:00:02.775Z,9.8
2018-04-17T09:15:02.985Z,9.9
2018-04-17T09:30:02.411Z,9.9
2018-04-17T09:45:02.634Z,10
2018-04-17T10:00:02.869Z,10.1
2018-04-17T10:15:03.139Z,10.2
2018-04-17T10:30:02.565Z,10.3
2018-04-17T10:45:02.795Z,10.4
2018-04-17T11:00:03.078Z,10.5
2018-04-17T11:15:02.388Z,10.6
2018-04-17T11:30:02.763Z,10.8
2018-04-17T11:45:03.006Z,10.8
2018-04-17T12:00:02.323Z,10.9
2018-04-17T12:15:02.599Z,11
2018-04-17T12:30:02.927Z,11
2018-04-17T12:45:03.166Z,11.1
2018-04-17T13:00:02.433Z,11.2
2018-04-17T13:15:02.686Z,11.3
2018-04-17T13:30:03.027Z,11.4
2018-04-17T13:45:02.377Z,11.6
2018-04-17T14:00:02.918Z,11.6
2018-04-17T14:15:03.145Z,11.7
2018-04-17T14:30:02.577Z,11.8
2018-04-17T14:45:02.935Z,11.8
2018-04-17T15:00:03.206Z,11.9
2018-04-17T15:15:02.565Z,11.9
2018-04-17T15:30:02.901Z,12
2018-04-17T15:45:03.208Z,12.1
2018-04-17T16:00:02.501Z,12.1
2018-04-17T16:15:02.708Z,12.2
2018-04-17T16:30:03.030Z,12.2
2018-04-17T16:45:02.265Z,12.2
2018-04-17T17:00:02.668Z,12.2
2018-04-17T17:15:02.991Z,12.2
2018-04-17T17:30:02.382Z,12.2
2018-04-17T17:45:02.600Z,12.2
2018-04-17T18:00:02.875Z,12.2
2018-04-17T18:15:03.150Z,12.2
2018-04-17T18:30:02.550Z,12.2
2018-04-17T18:45:02.802Z,12.2
2018-04-17T19:00:03.028Z,12.2
2018-04-17T19:15:02.376Z,12.2
2018-04-17T19:30:02.690Z,12.1
2018-04-17T19:45:02.944Z,12.1
2018-04-17T20:00:03.225Z,12.1
2018-04-17T20:15:02.499Z,12
2018-04-17T20:30:02.805Z,12
2018-04-17T20:45:03.053Z,11.9
2018-04-17T21:00:02.336Z,11.9
2018-04-17T21:15:02.604Z,11.8
2018-04-17T21:30:02.920Z,11.8
2018-04-17T21:45:03.156Z,11.8
2018-04-17T22:00:02.432Z,11.7
2018-04-17T22:15:02.794Z,11.7
2018-04-17T22:30:03.192Z,11.6
2018-04-17T22:45:02.476Z,11.6
2018-04-17T23:00:02.719Z,11.5
2018-04-17T23:15:02.980Z,11.4
2018-04-17T23:30:02.278Z,11.3
2018-04-17T23:45:02.536Z,11.2
